In Rescue
 
Open Full Screen Window  High Contrast Mode
Wind Gusting 15 knots
09
March 01, 2024 3:46 PM CST
Weather Information
Wind Direction
  230 °
Wind Speed
  09 kt (10 mph)
Wind Gust
  15 kt (17 mph)
Altimeter
29.64 in
Visibility
10 SM
Temperature
07° C
45° F
Dewpoint
02° C
36° F
Humidity
70%
Sky Condition
Clear
VFR

METAR KRRT 012146Z AUTO 23009G15KT 10SM CLR 07/02 A2964 RMK AO2

FAA Disclaimer: The data displayed is for advisory purposes only and is not to be used for flight planning or operations.